createdAt,value
2023-03-24T00:01:22.993Z,14.50
2023-03-24T00:03:52.306Z,14.50
2023-03-24T00:06:22.508Z,14.50
2023-03-24T00:08:50.442Z,14.50
2023-03-24T00:11:19.456Z,14.40
2023-03-24T00:13:50.008Z,14.40
2023-03-24T00:16:19.730Z,14.40
2023-03-24T00:18:52.766Z,14.40
2023-03-24T00:21:23.526Z,14.40
2023-03-24T00:23:58.189Z,14.40
2023-03-24T00:26:26.201Z,14.40
2023-03-24T00:28:54.864Z,14.50
2023-03-24T00:31:24.244Z,14.50
2023-03-24T00:33:52.182Z,14.40
2023-03-24T00:36:23.139Z,14.50
2023-03-24T00:38:51.573Z,14.50
2023-03-24T00:41:20.569Z,14.50
2023-03-24T00:43:50.029Z,14.40
2023-03-24T00:46:27.613Z,14.40
2023-03-24T00:49:05.765Z,14.40
2023-03-24T00:51:40.166Z,14.50
2023-03-24T00:54:12.557Z,14.40
2023-03-24T00:56:41.504Z,14.40
2023-03-24T00:59:10.254Z,14.40
2023-03-24T01:01:41.138Z,14.40
2023-03-24T01:04:10.416Z,14.40
2023-03-24T01:06:39.540Z,14.50
2023-03-24T01:09:07.807Z,14.50
2023-03-24T01:11:41.165Z,14.50
2023-03-24T01:14:11.124Z,14.50
2023-03-24T01:16:39.232Z,14.50
2023-03-24T01:19:09.309Z,14.50
2023-03-24T01:21:38.987Z,14.60
2023-03-24T01:24:06.755Z,14.60
2023-03-24T01:26:34.739Z,14.50
2023-03-24T01:29:02.538Z,14.50
2023-03-24T01:31:30.091Z,14.50
2023-03-24T01:33:57.736Z,14.50
2023-03-24T01:36:25.642Z,14.60
2023-03-24T01:38:53.400Z,14.60
2023-03-24T01:41:21.328Z,14.60
2023-03-24T01:43:48.956Z,14.60
2023-03-24T01:46:23.053Z,14.50
2023-03-24T01:48:59.825Z,14.50
2023-03-24T01:51:41.885Z,14.50
2023-03-24T01:54:40.579Z,14.50
2023-03-24T01:57:20.695Z,14.50
2023-03-24T01:59:53.741Z,14.40
2023-03-24T02:02:54.626Z,14.40
2023-03-24T02:05:29.575Z,14.40
2023-03-24T02:08:16.206Z,14.40
2023-03-24T02:10:45.123Z,14.40
2023-03-24T02:13:13.166Z,14.40
2023-03-24T02:16:19.764Z,14.40
2023-03-24T02:20:05.724Z,14.40
2023-03-24T02:23:04.335Z,14.30
2023-03-24T02:25:49.438Z,14.30
2023-03-24T02:29:22.087Z,14.30
2023-03-24T02:32:24.598Z,14.20
2023-03-24T02:35:26.337Z,14.20
2023-03-24T02:38:21.523Z,14.20
2023-03-24T02:41:19.175Z,14.20
2023-03-24T02:44:22.798Z,14.20
2023-03-24T02:47:07.568Z,14.30
2023-03-24T02:50:01.322Z,14.30
2023-03-24T02:52:53.219Z,14.30
2023-03-24T02:55:36.108Z,14.30
2023-03-24T02:58:12.397Z,14.30
2023-03-24T03:00:59.492Z,14.30
2023-03-24T03:04:14.343Z,14.30
2023-03-24T03:06:49.350Z,14.40
2023-03-24T03:09:21.348Z,14.40
2023-03-24T03:11:53.573Z,14.50
2023-03-24T03:14:48.234Z,14.50
2023-03-24T03:17:30.463Z,14.50
2023-03-24T03:20:07.894Z,14.50
2023-03-24T03:23:07.457Z,14.50
2023-03-24T03:25:42.204Z,14.50
2023-03-24T03:28:11.913Z,14.50
2023-03-24T03:30:47.598Z,14.50
2023-03-24T03:33:27.510Z,14.50
2023-03-24T03:36:07.371Z,14.50
2023-03-24T03:38:58.604Z,14.50
2023-03-24T03:41:26.847Z,14.50
2023-03-24T03:43:55.304Z,14.40
2023-03-24T03:46:23.383Z,14.40
2023-03-24T03:48:51.470Z,14.40
2023-03-24T03:51:19.999Z,14.30
2023-03-24T03:54:01.176Z,14.30
2023-03-24T03:56:33.998Z,14.20
2023-03-24T03:59:44.193Z,14.30
2023-03-24T04:02:52.584Z,14.30
2023-03-24T04:05:33.284Z,14.30
2023-03-24T04:08:51.323Z,14.20
2023-03-24T04:11:46.301Z,14.20
2023-03-24T04:14:51.378Z,14.20
2023-03-24T04:18:16.932Z,14.30
2023-03-24T04:21:33.599Z,14.40
2023-03-24T04:24:51.886Z,14.40
2023-03-24T04:28:01.936Z,14.40
2023-03-24T04:30:46.071Z,14.40
2023-03-24T04:33:52.414Z,14.40
2023-03-24T04:36:31.708Z,14.40
2023-03-24T04:39:38.854Z,14.40
2023-03-24T04:42:26.535Z,14.40
2023-03-24T04:44:57.664Z,14.40
2023-03-24T04:47:56.987Z,14.40
2023-03-24T04:50:58.783Z,14.50
2023-03-24T04:53:29.243Z,14.40
2023-03-24T04:56:28.396Z,14.40
2023-03-24T04:59:04.303Z,14.40
2023-03-24T05:01:32.697Z,14.40
2023-03-24T05:04:37.248Z,14.50
2023-03-24T05:07:21.381Z,14.40
2023-03-24T05:09:52.298Z,14.20
2023-03-24T05:12:19.854Z,14.20
2023-03-24T05:15:07.740Z,14.10
2023-03-24T05:17:36.613Z,14.00
2023-03-24T05:20:12.358Z,13.80
2023-03-24T05:22:43.561Z,13.70
2023-03-24T05:25:11.436Z,13.60
2023-03-24T05:27:39.134Z,13.50
2023-03-24T05:30:20.166Z,13.50
2023-03-24T05:32:49.095Z,13.40
2023-03-24T05:35:16.832Z,13.40
2023-03-24T05:37:44.522Z,13.40
2023-03-24T05:40:12.971Z,13.40
2023-03-24T05:42:51.686Z,13.40
2023-03-24T05:45:20.240Z,13.30
2023-03-24T05:47:48.373Z,13.30
2023-03-24T05:50:19.760Z,13.40
2023-03-24T05:52:47.978Z,13.40
2023-03-24T05:55:36.040Z,13.40
2023-03-24T05:58:15.668Z,13.40
2023-03-24T06:00:49.984Z,13.40
2023-03-24T06:03:34.090Z,13.40
2023-03-24T06:06:08.714Z,13.40
2023-03-24T06:08:38.367Z,13.30
2023-03-24T06:11:06.656Z,13.30
2023-03-24T06:13:43.956Z,13.30
2023-03-24T06:16:11.583Z,13.30
2023-03-24T06:18:53.025Z,13.40
2023-03-24T06:21:38.952Z,13.40
2023-03-24T06:24:06.958Z,13.40
2023-03-24T06:26:36.394Z,13.50
2023-03-24T06:29:04.698Z,13.50
2023-03-24T06:31:37.440Z,13.50
2023-03-24T06:34:06.366Z,13.50
2023-03-24T06:36:34.688Z,13.60
2023-03-24T06:39:04.364Z,13.60
2023-03-24T06:41:32.389Z,13.50
2023-03-24T06:44:01.931Z,13.60
2023-03-24T06:46:29.627Z,13.60
2023-03-24T06:48:57.297Z,13.60
2023-03-24T06:51:25.203Z,13.60
2023-03-24T06:53:53.078Z,13.60
2023-03-24T06:56:23.341Z,13.70
2023-03-24T06:58:57.829Z,13.70
2023-03-24T07:01:30.146Z,13.80
2023-03-24T07:04:06.287Z,13.80
2023-03-24T07:07:08.577Z,13.90
2023-03-24T07:09:44.638Z,13.90
2023-03-24T07:12:14.656Z,13.90
2023-03-24T07:14:42.867Z,13.90
2023-03-24T07:17:10.675Z,13.90
2023-03-24T07:19:45.714Z,13.80
2023-03-24T07:22:48.211Z,13.80
2023-03-24T07:25:25.596Z,13.80
2023-03-24T07:27:59.848Z,13.80
2023-03-24T07:30:39.391Z,13.80
2023-03-24T07:33:12.467Z,13.80
2023-03-24T07:35:42.925Z,13.70
2023-03-24T07:38:11.734Z,13.70
2023-03-24T07:40:39.681Z,13.70
2023-03-24T07:43:07.254Z,13.60
2023-03-24T07:45:55.206Z,13.60
2023-03-24T07:48:22.822Z,13.50
2023-03-24T07:50:54.052Z,13.60
2023-03-24T07:53:47.664Z,13.50
2023-03-24T07:56:22.513Z,13.50
2023-03-24T07:58:56.926Z,13.50
2023-03-24T08:01:45.023Z,13.50
2023-03-24T08:04:14.919Z,13.50
2023-03-24T08:07:03.005Z,13.50
2023-03-24T08:09:30.650Z,13.50
2023-03-24T08:12:00.575Z,13.50
2023-03-24T08:14:34.616Z,13.50
2023-03-24T08:17:02.335Z,13.60
2023-03-24T08:19:29.944Z,13.60
2023-03-24T08:21:57.474Z,13.60
2023-03-24T08:24:25.495Z,13.70
2023-03-24T08:26:53.545Z,13.70
2023-03-24T08:29:21.165Z,13.80
2023-03-24T08:31:48.737Z,13.80
2023-03-24T08:34:16.245Z,13.80
2023-03-24T08:36:43.767Z,13.90
2023-03-24T08:39:11.292Z,13.90
2023-03-24T08:41:38.854Z,13.90
2023-03-24T08:44:07.475Z,13.90
2023-03-24T08:46:35.401Z,14.00
2023-03-24T08:49:03.997Z,14.00
2023-03-24T08:51:32.544Z,14.00
2023-03-24T08:54:01.430Z,14.00
2023-03-24T08:56:29.258Z,14.00
2023-03-24T08:58:57.907Z,14.10
2023-03-24T09:01:25.629Z,14.10
2023-03-24T09:03:53.376Z,14.10
2023-03-24T09:06:21.422Z,14.20
2023-03-24T09:08:48.938Z,14.30
2023-03-24T09:11:20.932Z,14.40
2023-03-24T09:13:49.345Z,14.40
2023-03-24T09:16:17.879Z,14.40
2023-03-24T09:18:46.333Z,14.40
2023-03-24T09:21:14.259Z,14.30
2023-03-24T09:23:42.492Z,14.30
2023-03-24T09:26:10.127Z,14.30
2023-03-24T09:28:37.822Z,14.30
2023-03-24T09:31:06.447Z,14.30
2023-03-24T09:33:34.934Z,14.40
2023-03-24T09:36:05.021Z,14.50
2023-03-24T09:38:34.910Z,14.60
2023-03-24T09:41:03.587Z,14.80
2023-03-24T09:43:42.387Z,14.80
2023-03-24T09:46:24.716Z,14.90
2023-03-24T09:48:57.441Z,14.90
2023-03-24T09:51:27.904Z,15.00
2023-03-24T09:54:27.260Z,15.10
2023-03-24T09:56:57.235Z,15.10
2023-03-24T09:59:39.625Z,15.20
2023-03-24T10:02:20.140Z,15.20
2023-03-24T10:04:48.892Z,15.40
2023-03-24T10:07:40.307Z,15.50
2023-03-24T10:10:31.992Z,15.80
2023-03-24T10:13:11.890Z,15.80
2023-03-24T10:15:52.064Z,15.80
2023-03-24T10:18:34.131Z,15.70
2023-03-24T10:21:17.878Z,15.80
2023-03-24T10:24:18.608Z,15.80
2023-03-24T10:27:22.848Z,15.90
2023-03-24T10:30:00.914Z,16.00
2023-03-24T10:32:32.867Z,16.10
2023-03-24T10:35:09.397Z,16.10
2023-03-24T10:37:37.769Z,16.00
2023-03-24T10:40:25.037Z,16.00
2023-03-24T10:43:06.423Z,16.00
2023-03-24T10:45:40.870Z,16.10
2023-03-24T10:48:09.491Z,16.10
2023-03-24T10:50:44.143Z,16.00
2023-03-24T10:53:20.941Z,16.00
2023-03-24T10:55:48.970Z,16.00
2023-03-24T10:58:43.294Z,16.00
2023-03-24T11:01:26.108Z,16.10
2023-03-24T11:04:01.188Z,16.10
2023-03-24T11:06:29.130Z,16.20
2023-03-24T11:09:20.010Z,16.10
2023-03-24T11:11:47.844Z,16.30
2023-03-24T11:14:25.416Z,16.40
2023-03-24T11:17:17.418Z,16.40
2023-03-24T11:19:53.569Z,16.50
2023-03-24T11:22:21.774Z,16.50
2023-03-24T11:24:52.659Z,16.60
2023-03-24T11:27:20.426Z,16.70
2023-03-24T11:29:54.594Z,16.80
2023-03-24T11:32:27.877Z,16.70
2023-03-24T11:35:07.759Z,16.40
2023-03-24T11:37:37.329Z,16.30
2023-03-24T11:40:20.631Z,16.20
2023-03-24T11:42:57.381Z,16.10
2023-03-24T11:45:39.189Z,16.00
2023-03-24T11:48:45.508Z,16.00
2023-03-24T11:51:23.503Z,16.00
2023-03-24T11:53:53.765Z,16.00
2023-03-24T11:56:43.090Z,15.90
2023-03-24T11:59:49.435Z,15.80
2023-03-24T12:02:47.969Z,15.60
2023-03-24T12:05:42.250Z,15.70
2023-03-24T12:08:27.099Z,15.60
2023-03-24T12:11:08.112Z,15.50
2023-03-24T12:13:51.523Z,15.60
2023-03-24T12:16:40.862Z,15.80
2023-03-24T12:19:26.561Z,15.90
2023-03-24T12:22:38.548Z,16.00
2023-03-24T12:25:58.794Z,15.90
2023-03-24T12:28:58.378Z,15.80
2023-03-24T12:31:56.890Z,15.80
2023-03-24T12:34:55.967Z,15.80
2023-03-24T12:37:59.764Z,15.60
2023-03-24T12:41:05.789Z,15.50
2023-03-24T12:44:27.566Z,15.60
2023-03-24T12:47:04.173Z,15.60
2023-03-24T12:49:50.586Z,15.60
2023-03-24T12:53:07.790Z,15.60
2023-03-24T12:55:43.484Z,15.70
2023-03-24T12:58:26.804Z,15.70
2023-03-24T13:01:32.866Z,15.40
2023-03-24T13:04:12.823Z,14.60
2023-03-24T13:06:59.179Z,13.90
2023-03-24T13:09:55.691Z,13.40
2023-03-24T13:12:42.140Z,13.10
2023-03-24T13:15:09.895Z,13.00
2023-03-24T13:18:11.633Z,12.80
2023-03-24T13:20:54.070Z,12.70
2023-03-24T13:23:21.890Z,12.40
2023-03-24T13:26:11.740Z,12.40
2023-03-24T13:28:59.080Z,12.40
2023-03-24T13:31:31.426Z,12.40
2023-03-24T13:34:00.375Z,12.40
2023-03-24T13:37:11.811Z,12.40
2023-03-24T13:39:39.723Z,12.20
2023-03-24T13:42:07.734Z,12.10
2023-03-24T13:44:44.309Z,12.10
2023-03-24T13:47:17.704Z,12.10
2023-03-24T13:50:01.273Z,12.00
2023-03-24T13:52:40.074Z,12.00
2023-03-24T13:55:34.504Z,12.20
2023-03-24T13:58:19.136Z,12.10
2023-03-24T14:01:31.521Z,12.00
2023-03-24T14:04:48.434Z,12.10
2023-03-24T14:07:39.621Z,12.00
2023-03-24T14:10:16.505Z,12.20
2023-03-24T14:12:58.891Z,12.30
2023-03-24T14:15:50.569Z,12.20
2023-03-24T14:18:24.797Z,12.10
2023-03-24T14:21:02.509Z,12.00
2023-03-24T14:23:39.140Z,12.00
2023-03-24T14:26:21.268Z,12.00
2023-03-24T14:28:57.160Z,11.90
2023-03-24T14:31:33.750Z,11.90
2023-03-24T14:34:15.435Z,12.00
2023-03-24T14:36:45.339Z,11.90
2023-03-24T14:39:31.756Z,11.90
2023-03-24T14:41:59.736Z,12.10
2023-03-24T14:44:55.261Z,12.20
2023-03-24T14:47:43.398Z,12.30
2023-03-24T14:50:19.665Z,12.40
2023-03-24T14:52:54.894Z,12.40
2023-03-24T14:55:23.216Z,12.50
2023-03-24T14:58:22.229Z,12.50
2023-03-24T15:01:06.926Z,12.60
2023-03-24T15:04:00.791Z,12.70
2023-03-24T15:06:29.121Z,12.70
2023-03-24T15:08:59.887Z,12.80
2023-03-24T15:11:39.519Z,12.90
2023-03-24T15:14:25.300Z,12.90
2023-03-24T15:17:04.146Z,12.90
2023-03-24T15:19:33.894Z,12.90
2023-03-24T15:22:12.793Z,13.00
2023-03-24T15:24:47.268Z,13.00
2023-03-24T15:27:26.512Z,13.10
2023-03-24T15:29:59.129Z,13.10
2023-03-24T15:32:32.098Z,13.00
2023-03-24T15:35:05.570Z,13.10
2023-03-24T15:37:41.087Z,13.20
2023-03-24T15:40:27.462Z,13.30
2023-03-24T15:42:59.122Z,13.50
2023-03-24T15:45:33.156Z,13.60
2023-03-24T15:48:18.326Z,13.60
2023-03-24T15:51:09.186Z,13.70
2023-03-24T15:53:56.158Z,13.90
2023-03-24T15:56:32.103Z,13.90
2023-03-24T15:59:05.485Z,13.80
2023-03-24T16:01:38.329Z,13.90
2023-03-24T16:04:14.184Z,14.00
2023-03-24T16:06:48.649Z,14.20
2023-03-24T16:09:21.784Z,14.40
2023-03-24T16:11:49.359Z,14.50
2023-03-24T16:14:29.689Z,14.60
2023-03-24T16:17:00.769Z,14.60
2023-03-24T16:19:28.601Z,14.50
2023-03-24T16:21:56.491Z,14.30
2023-03-24T16:24:24.154Z,14.20
2023-03-24T16:26:51.726Z,14.20
2023-03-24T16:29:24.064Z,14.30
2023-03-24T16:31:56.754Z,14.20
2023-03-24T16:34:24.628Z,14.20
2023-03-24T16:36:54.936Z,14.20
2023-03-24T16:39:27.877Z,14.20
2023-03-24T16:41:56.667Z,14.10
2023-03-24T16:44:25.096Z,14.20
2023-03-24T16:46:54.838Z,14.20
2023-03-24T16:49:24.006Z,14.20
2023-03-24T16:51:53.768Z,14.20
2023-03-24T16:54:21.829Z,14.10
2023-03-24T16:56:49.758Z,14.10
2023-03-24T16:59:17.428Z,14.00
2023-03-24T17:01:47.249Z,13.90
2023-03-24T17:04:22.279Z,13.80
2023-03-24T17:06:53.423Z,13.80
2023-03-24T17:09:22.147Z,13.70
2023-03-24T17:11:55.885Z,13.70
2023-03-24T17:14:24.065Z,13.60
2023-03-24T17:16:53.423Z,13.50
2023-03-24T17:19:23.681Z,13.50
2023-03-24T17:22:04.751Z,13.40
2023-03-24T17:24:36.718Z,13.40
2023-03-24T17:27:14.398Z,13.30
2023-03-24T17:29:41.908Z,13.20
2023-03-24T17:32:11.975Z,13.20
2023-03-24T17:34:41.681Z,13.10
2023-03-24T17:37:09.194Z,13.10
2023-03-24T17:39:36.925Z,13.00
2023-03-24T17:42:04.665Z,13.00
2023-03-24T17:44:33.686Z,12.90
2023-03-24T17:47:01.290Z,12.90
2023-03-24T17:49:28.845Z,12.90
2023-03-24T17:51:56.357Z,12.80
2023-03-24T17:54:25.426Z,12.80
2023-03-24T17:56:52.985Z,12.70
2023-03-24T17:59:20.578Z,12.70
2023-03-24T18:01:48.155Z,12.60
2023-03-24T18:04:15.927Z,12.60
2023-03-24T18:06:46.152Z,12.60
2023-03-24T18:09:14.007Z,12.50
2023-03-24T18:11:41.534Z,12.50
2023-03-24T18:14:09.214Z,12.40
2023-03-24T18:16:39.150Z,12.30
2023-03-24T18:19:07.053Z,12.30
2023-03-24T18:21:34.589Z,12.20
2023-03-24T18:24:02.290Z,12.30
2023-03-24T18:26:30.605Z,12.20
2023-03-24T18:28:58.193Z,12.20
2023-03-24T18:31:26.086Z,12.20
2023-03-24T18:33:55.178Z,12.10
2023-03-24T18:36:26.226Z,12.10
2023-03-24T18:39:01.829Z,12.10
2023-03-24T18:41:30.412Z,12.00
2023-03-24T18:43:59.514Z,11.90
2023-03-24T18:46:27.505Z,11.90
2023-03-24T18:48:55.474Z,11.90
2023-03-24T18:51:25.525Z,11.90
2023-03-24T18:53:53.452Z,11.80
2023-03-24T18:56:23.273Z,11.80
2023-03-24T18:58:52.352Z,11.80
2023-03-24T19:01:26.102Z,11.80
2023-03-24T19:03:53.808Z,11.80
2023-03-24T19:06:22.102Z,11.70
2023-03-24T19:08:51.984Z,11.70
2023-03-24T19:11:20.076Z,11.70
2023-03-24T19:13:50.480Z,11.60
2023-03-24T19:16:20.384Z,11.60
2023-03-24T19:18:50.327Z,11.60
2023-03-24T19:21:19.591Z,11.60
2023-03-24T19:23:47.139Z,11.50
2023-03-24T19:26:19.992Z,11.50
2023-03-24T19:28:47.528Z,11.50
2023-03-24T19:31:18.476Z,11.50
2023-03-24T19:33:47.337Z,11.50
2023-03-24T19:36:15.844Z,11.50
2023-03-24T19:38:44.102Z,11.40
2023-03-24T19:41:14.292Z,11.40
2023-03-24T19:43:41.890Z,11.40
2023-03-24T19:46:09.479Z,11.30
2023-03-24T19:48:37.331Z,11.30
2023-03-24T19:51:05.343Z,11.30
2023-03-24T19:53:33.023Z,11.30
2023-03-24T19:56:01.280Z,11.30
2023-03-24T19:58:29.112Z,11.30
2023-03-24T20:00:57.011Z,11.30
2023-03-24T20:03:25.800Z,11.30
2023-03-24T20:05:53.453Z,11.20
2023-03-24T20:08:21.596Z,11.20
2023-03-24T20:10:49.138Z,11.20
2023-03-24T20:13:16.656Z,11.20
2023-03-24T20:15:46.638Z,11.20
2023-03-24T20:18:14.354Z,11.20
2023-03-24T20:20:42.485Z,11.20
2023-03-24T20:23:10.505Z,11.10
2023-03-24T20:25:42.584Z,11.10
2023-03-24T20:28:10.417Z,11.10
2023-03-24T20:30:39.879Z,11.20
2023-03-24T20:33:07.758Z,11.10
2023-03-24T20:35:36.491Z,11.10
2023-03-24T20:38:04.316Z,11.10
2023-03-24T20:40:31.890Z,11.10
2023-03-24T20:42:59.901Z,11.10
2023-03-24T20:45:27.483Z,11.10
2023-03-24T20:47:55.376Z,11.10
2023-03-24T20:50:23.020Z,11.10
2023-03-24T20:52:51.114Z,11.00
2023-03-24T20:55:18.685Z,11.00
2023-03-24T20:57:47.427Z,11.00
2023-03-24T21:00:15.563Z,10.90
2023-03-24T21:02:43.751Z,10.90
2023-03-24T21:05:11.685Z,10.90
2023-03-24T21:07:43.494Z,10.90
2023-03-24T21:10:11.419Z,10.90
2023-03-24T21:12:53.053Z,10.90
2023-03-24T21:15:24.896Z,10.90
2023-03-24T21:17:53.349Z,10.90
2023-03-24T21:20:21.598Z,10.90
2023-03-24T21:22:55.549Z,10.80
2023-03-24T21:25:27.450Z,10.80
2023-03-24T21:27:55.938Z,10.80
2023-03-24T21:30:25.929Z,10.90
2023-03-24T21:32:56.633Z,10.90
2023-03-24T21:35:24.951Z,10.90
2023-03-24T21:37:53.664Z,10.90
2023-03-24T21:40:25.363Z,10.90
2023-03-24T21:42:55.771Z,10.90
2023-03-24T21:45:23.874Z,10.80
2023-03-24T21:47:54.819Z,10.80
2023-03-24T21:50:23.217Z,10.80
2023-03-24T21:52:54.729Z,10.80
2023-03-24T21:55:23.252Z,10.70
2023-03-24T21:57:51.868Z,10.80
2023-03-24T22:00:23.916Z,10.80
2023-03-24T22:02:54.070Z,10.70
2023-03-24T22:05:27.867Z,10.80
2023-03-24T22:07:55.886Z,10.80
2023-03-24T22:10:23.404Z,10.80
2023-03-24T22:12:53.176Z,10.80
2023-03-24T22:15:21.729Z,10.80
2023-03-24T22:17:50.281Z,10.80
2023-03-24T22:20:18.193Z,10.80
2023-03-24T22:22:46.234Z,10.80
2023-03-24T22:25:17.944Z,10.80
2023-03-24T22:27:49.444Z,10.80
2023-03-24T22:30:18.998Z,10.80
2023-03-24T22:32:46.571Z,10.90
2023-03-24T22:35:14.648Z,10.80
2023-03-24T22:37:42.574Z,10.80
2023-03-24T22:40:10.459Z,10.90
2023-03-24T22:42:38.395Z,10.80
2023-03-24T22:45:06.786Z,10.90
2023-03-24T22:47:34.384Z,10.90
2023-03-24T22:50:02.323Z,10.90
2023-03-24T22:52:30.465Z,10.80
2023-03-24T22:54:58.028Z,10.80
2023-03-24T22:57:25.582Z,10.80
2023-03-24T22:59:53.179Z,10.60
2023-03-24T23:02:24.399Z,10.50
2023-03-24T23:04:52.183Z,10.40
2023-03-24T23:07:22.665Z,10.30
2023-03-24T23:09:50.336Z,10.10
2023-03-24T23:12:17.929Z,10.00
2023-03-24T23:14:46.357Z,10.00
2023-03-24T23:17:15.725Z,9.80
2023-03-24T23:19:43.507Z,9.80
2023-03-24T23:22:11.195Z,9.70
2023-03-24T23:24:39.281Z,9.60
2023-03-24T23:27:07.074Z,9.50
2023-03-24T23:29:37.668Z,9.40
2023-03-24T23:32:06.214Z,9.40
2023-03-24T23:34:34.806Z,9.40
2023-03-24T23:37:04.955Z,9.50
2023-03-24T23:39:33.951Z,9.40
2023-03-24T23:42:01.448Z,9.40
2023-03-24T23:44:28.985Z,9.40
2023-03-24T23:46:56.686Z,9.40
2023-03-24T23:49:24.312Z,9.40
2023-03-24T23:51:51.875Z,9.30
2023-03-24T23:54:19.531Z,9.40
2023-03-24T23:56:47.150Z,9.40
2023-03-24T23:59:14.858Z,9.40
